createdAt,value
2023-03-29T00:00:14.502Z,6.53
2023-03-29T00:01:35.516Z,6.55
2023-03-29T00:02:16.272Z,6.58
2023-03-29T00:03:17.138Z,6.57
2023-03-29T00:04:17.938Z,6.57
2023-03-29T00:05:18.602Z,6.58
2023-03-29T00:06:19.297Z,6.57
2023-03-29T00:07:19.949Z,6.57
2023-03-29T00:08:20.660Z,6.60
2023-03-29T00:09:21.330Z,6.58
2023-03-29T00:10:22.033Z,6.60
2023-03-29T00:11:22.718Z,6.58
2023-03-29T00:12:23.411Z,6.60
2023-03-29T00:13:24.158Z,6.58
2023-03-29T00:14:24.851Z,6.60
2023-03-29T00:15:25.544Z,6.58
2023-03-29T00:16:26.271Z,6.60
2023-03-29T00:17:26.982Z,6.58
2023-03-29T00:18:27.653Z,6.55
2023-03-29T00:19:28.342Z,6.55
2023-03-29T00:20:29.120Z,6.54
2023-03-29T00:21:29.778Z,6.53
2023-03-29T00:22:30.459Z,6.54
2023-03-29T00:23:31.157Z,6.50
2023-03-29T00:24:31.846Z,6.53
2023-03-29T00:25:32.532Z,6.51
2023-03-29T00:26:33.219Z,6.50
2023-03-29T00:27:33.917Z,6.50
2023-03-29T00:28:34.623Z,6.53
2023-03-29T00:29:35.315Z,6.54
2023-03-29T00:30:36.007Z,6.53
2023-03-29T00:31:36.669Z,6.53
2023-03-29T00:32:37.436Z,6.53
2023-03-29T00:33:38.118Z,6.54
2023-03-29T00:34:38.790Z,6.53
2023-03-29T00:35:39.518Z,6.53
2023-03-29T00:36:40.179Z,6.53
2023-03-29T00:37:40.911Z,6.53
2023-03-29T00:38:41.657Z,6.53
2023-03-29T00:39:42.342Z,6.53
2023-03-29T00:40:43.014Z,6.53
2023-03-29T00:41:43.691Z,6.54
2023-03-29T00:42:44.400Z,6.53
2023-03-29T00:43:45.081Z,6.53
2023-03-29T00:44:45.767Z,6.50
2023-03-29T00:45:46.442Z,6.48
2023-03-29T00:46:47.157Z,6.45
2023-03-29T00:47:47.936Z,6.46
2023-03-29T00:48:48.619Z,6.46
2023-03-29T00:49:49.324Z,6.42
2023-03-29T00:50:50.004Z,6.42
2023-03-29T00:51:50.723Z,6.43
2023-03-29T00:52:51.443Z,6.42
2023-03-29T00:53:52.135Z,6.46
2023-03-29T00:54:52.808Z,6.45
2023-03-29T00:55:53.488Z,6.43
2023-03-29T00:56:54.194Z,6.43
2023-03-29T00:57:54.879Z,6.43
2023-03-29T00:58:55.593Z,6.42
2023-03-29T00:59:56.262Z,6.40
2023-03-29T01:00:56.943Z,6.42
2023-03-29T01:01:57.713Z,6.43
2023-03-29T01:02:58.501Z,6.45
2023-03-29T01:03:59.319Z,6.45
2023-03-29T01:04:59.993Z,6.42
2023-03-29T01:06:00.680Z,6.42
2023-03-29T01:07:01.412Z,6.38
2023-03-29T01:08:02.344Z,6.39
2023-03-29T01:09:03.044Z,6.39
2023-03-29T01:10:03.723Z,6.36
2023-03-29T01:11:04.575Z,6.36
2023-03-29T01:12:05.387Z,6.39
2023-03-29T01:13:06.087Z,6.38
2023-03-29T01:14:06.769Z,6.33
2023-03-29T01:15:07.451Z,6.33
2023-03-29T01:16:08.148Z,6.35
2023-03-29T01:17:08.821Z,6.33
2023-03-29T01:18:09.536Z,6.32
2023-03-29T01:19:10.199Z,6.32
2023-03-29T01:20:10.890Z,6.33
2023-03-29T01:21:11.601Z,6.35
2023-03-29T01:22:12.322Z,6.35
2023-03-29T01:23:13.019Z,6.35
2023-03-29T01:24:13.737Z,6.40
2023-03-29T01:25:14.418Z,6.39
2023-03-29T01:26:15.094Z,6.40
2023-03-29T01:27:15.809Z,6.36
2023-03-29T01:28:16.481Z,6.42
2023-03-29T01:29:17.178Z,6.39
2023-03-29T01:30:17.868Z,6.38
2023-03-29T01:31:18.559Z,6.38
2023-03-29T01:32:19.233Z,6.35
2023-03-29T01:33:19.919Z,6.35
2023-03-29T01:34:20.609Z,6.39
2023-03-29T01:35:21.286Z,6.38
2023-03-29T01:36:21.978Z,6.35
2023-03-29T01:37:22.655Z,6.39
2023-03-29T01:38:23.361Z,6.39
2023-03-29T01:39:24.046Z,6.40
2023-03-29T01:40:24.731Z,6.39
2023-03-29T01:41:25.416Z,6.42
2023-03-29T01:42:26.099Z,6.42
2023-03-29T01:43:26.812Z,6.42
2023-03-29T01:44:27.493Z,6.43
2023-03-29T01:45:28.195Z,6.45
2023-03-29T01:46:28.987Z,6.46
2023-03-29T01:47:29.756Z,6.46
2023-03-29T01:48:30.436Z,6.48
2023-03-29T01:49:31.114Z,6.51
2023-03-29T01:50:31.792Z,6.51
2023-03-29T01:51:32.496Z,6.50
2023-03-29T01:52:33.163Z,6.51
2023-03-29T01:53:33.867Z,6.53
2023-03-29T01:54:34.549Z,6.50
2023-03-29T01:55:35.251Z,6.53
2023-03-29T01:56:35.923Z,6.53
2023-03-29T01:57:36.607Z,6.54
2023-03-29T01:58:37.300Z,6.54
2023-03-29T01:59:37.987Z,6.57
2023-03-29T02:00:38.649Z,6.57
2023-03-29T02:01:39.390Z,6.60
2023-03-29T02:02:40.178Z,6.61
2023-03-29T02:03:40.924Z,6.63
2023-03-29T02:04:41.612Z,6.61
2023-03-29T02:05:42.282Z,6.63
2023-03-29T02:06:42.953Z,6.61
2023-03-29T02:07:43.658Z,6.64
2023-03-29T02:08:44.354Z,6.63
2023-03-29T02:09:45.028Z,6.63
2023-03-29T02:10:45.724Z,6.63
2023-03-29T02:11:46.397Z,6.65
2023-03-29T02:12:47.065Z,6.64
2023-03-29T02:13:47.767Z,6.69
2023-03-29T02:14:48.456Z,6.63
2023-03-29T02:15:49.185Z,6.65
2023-03-29T02:16:49.866Z,6.68
2023-03-29T02:17:50.586Z,6.68
2023-03-29T02:18:51.258Z,6.69
2023-03-29T02:19:52.026Z,6.69
2023-03-29T02:20:52.737Z,6.69
2023-03-29T02:21:53.420Z,6.69
2023-03-29T02:22:54.088Z,6.71
2023-03-29T02:23:54.847Z,6.71
2023-03-29T02:24:55.514Z,6.72
2023-03-29T02:25:56.196Z,6.73
2023-03-29T02:26:56.885Z,6.75
2023-03-29T02:27:57.588Z,6.73
2023-03-29T02:28:58.275Z,6.75
2023-03-29T02:29:58.955Z,6.75
2023-03-29T02:32:00.355Z,6.81
2023-03-29T02:33:01.112Z,6.81
2023-03-29T02:34:01.805Z,6.81
2023-03-29T02:35:02.467Z,6.83
2023-03-29T02:36:03.191Z,6.83
2023-03-29T02:37:10.437Z,6.86
2023-03-29T02:38:04.763Z,6.86
2023-03-29T02:39:05.439Z,6.87
2023-03-29T02:40:06.503Z,6.83
2023-03-29T02:41:07.197Z,6.86
2023-03-29T02:42:07.918Z,6.87
2023-03-29T02:43:08.602Z,6.86
2023-03-29T02:44:09.267Z,6.87
2023-03-29T02:45:09.961Z,6.89
2023-03-29T02:46:10.681Z,6.89
2023-03-29T02:47:11.357Z,6.89
2023-03-29T02:48:12.119Z,6.87
2023-03-29T02:49:12.800Z,6.89
2023-03-29T02:50:13.507Z,6.89
2023-03-29T02:51:14.213Z,6.89
2023-03-29T02:52:14.920Z,6.87
2023-03-29T02:53:15.658Z,6.87
2023-03-29T02:54:16.373Z,6.87
2023-03-29T02:55:17.202Z,6.89
2023-03-29T02:56:17.888Z,6.90
2023-03-29T02:57:18.642Z,6.89
2023-03-29T02:58:19.392Z,6.87
2023-03-29T02:59:20.084Z,6.90
2023-03-29T03:00:20.837Z,6.91
2023-03-29T03:01:21.534Z,6.91
2023-03-29T03:02:22.306Z,6.90
2023-03-29T03:03:23.096Z,6.93
2023-03-29T03:04:23.888Z,6.91
2023-03-29T03:05:25.464Z,6.91
2023-03-29T03:06:25.570Z,6.91
2023-03-29T03:07:26.240Z,6.94
2023-03-29T03:08:26.922Z,6.96
2023-03-29T03:09:27.670Z,6.94
2023-03-29T03:10:28.355Z,6.96
2023-03-29T03:11:29.906Z,6.96
2023-03-29T03:12:30.014Z,6.94
2023-03-29T03:13:30.725Z,6.96
2023-03-29T03:14:31.433Z,6.96
2023-03-29T03:15:32.108Z,6.97
2023-03-29T03:16:32.861Z,6.96
2023-03-29T03:17:33.605Z,6.99
2023-03-29T03:18:34.318Z,6.96
2023-03-29T03:19:35.022Z,6.97
2023-03-29T03:20:35.715Z,6.96
2023-03-29T03:21:36.397Z,6.93
2023-03-29T03:22:37.122Z,6.94
2023-03-29T03:23:37.843Z,6.94
2023-03-29T03:24:38.533Z,6.96
2023-03-29T03:25:39.209Z,6.96
2023-03-29T03:26:39.909Z,6.96
2023-03-29T03:27:40.615Z,6.97
2023-03-29T03:28:41.285Z,6.94
2023-03-29T03:29:41.984Z,6.96
2023-03-29T03:30:42.675Z,6.97
2023-03-29T03:31:43.426Z,6.99
2023-03-29T03:32:44.235Z,6.99
2023-03-29T03:33:44.910Z,6.97
2023-03-29T03:34:45.637Z,7.00
2023-03-29T03:35:46.426Z,6.99
2023-03-29T03:36:47.180Z,6.99
2023-03-29T03:37:47.881Z,7.00
2023-03-29T03:38:48.583Z,7.01
2023-03-29T03:39:49.304Z,7.00
2023-03-29T03:40:49.982Z,7.01
2023-03-29T03:41:50.670Z,7.04
2023-03-29T03:42:51.362Z,7.04
2023-03-29T03:43:52.054Z,7.00
2023-03-29T03:44:52.734Z,7.01
2023-03-29T03:45:53.487Z,7.05
2023-03-29T03:46:54.217Z,7.05
2023-03-29T03:47:54.923Z,7.08
2023-03-29T03:48:55.577Z,7.07
2023-03-29T03:49:56.364Z,7.07
2023-03-29T03:50:57.112Z,7.07
2023-03-29T03:51:57.844Z,7.07
2023-03-29T03:52:58.548Z,7.07
2023-03-29T03:53:59.221Z,7.08
2023-03-29T03:54:59.919Z,7.08
2023-03-29T03:56:00.618Z,7.09
2023-03-29T03:57:01.373Z,7.08
2023-03-29T03:58:02.089Z,7.05
2023-03-29T03:59:02.742Z,7.08
2023-03-29T04:00:03.427Z,7.05
2023-03-29T04:01:04.116Z,7.08
2023-03-29T04:02:04.815Z,7.09
2023-03-29T04:03:05.637Z,7.08
2023-03-29T04:04:06.499Z,7.08
2023-03-29T04:05:07.183Z,7.08
2023-03-29T04:06:07.883Z,7.08
2023-03-29T04:07:08.564Z,7.08
2023-03-29T04:08:09.313Z,7.08
2023-03-29T04:09:09.980Z,7.08
2023-03-29T04:10:10.661Z,7.09
2023-03-29T04:11:11.372Z,7.07
2023-03-29T04:12:12.038Z,7.08
2023-03-29T04:13:12.742Z,7.08
2023-03-29T04:14:13.456Z,7.05
2023-03-29T04:15:14.157Z,7.07
2023-03-29T04:16:14.949Z,7.08
2023-03-29T04:17:15.627Z,7.08
2023-03-29T04:18:16.537Z,7.07
2023-03-29T04:19:17.348Z,7.09
2023-03-29T04:20:18.030Z,7.09
2023-03-29T04:21:21.167Z,7.12
2023-03-29T04:22:19.726Z,7.09
2023-03-29T04:23:20.429Z,7.11
2023-03-29T04:24:21.112Z,7.09
2023-03-29T04:25:21.769Z,7.08
2023-03-29T04:26:22.453Z,7.07
2023-03-29T04:27:23.141Z,7.05
2023-03-29T04:28:23.855Z,7.07
2023-03-29T04:29:24.547Z,7.05
2023-03-29T04:30:25.249Z,7.07
2023-03-29T04:31:26.124Z,7.08
2023-03-29T04:32:26.887Z,7.08
2023-03-29T04:33:27.563Z,7.08
2023-03-29T04:34:28.269Z,7.08
2023-03-29T04:35:28.963Z,7.07
2023-03-29T04:36:29.626Z,7.07
2023-03-29T04:37:30.324Z,7.09
2023-03-29T04:38:31.015Z,7.08
2023-03-29T04:39:31.692Z,7.07
2023-03-29T04:40:32.403Z,7.08
2023-03-29T04:41:33.103Z,7.05
2023-03-29T04:42:33.798Z,7.05
2023-03-29T04:43:34.487Z,7.07
2023-03-29T04:44:35.223Z,7.07
2023-03-29T04:45:35.900Z,7.07
2023-03-29T04:46:36.620Z,7.07
2023-03-29T04:47:37.359Z,7.09
2023-03-29T04:48:38.067Z,7.08
2023-03-29T04:49:38.736Z,7.07
2023-03-29T04:50:39.438Z,7.08
2023-03-29T04:51:40.133Z,7.08
2023-03-29T04:52:40.865Z,7.07
2023-03-29T04:53:41.601Z,7.08
2023-03-29T04:54:42.314Z,7.08
2023-03-29T04:55:42.990Z,7.11
2023-03-29T04:56:43.704Z,7.09
2023-03-29T04:57:44.377Z,7.09
2023-03-29T04:58:45.068Z,7.11
2023-03-29T04:59:45.772Z,7.12
2023-03-29T05:00:46.441Z,7.14
2023-03-29T05:01:47.183Z,7.12
2023-03-29T05:02:47.912Z,7.14
2023-03-29T05:03:48.613Z,7.12
2023-03-29T05:04:49.350Z,7.14
2023-03-29T05:05:50.032Z,7.12
2023-03-29T05:06:50.711Z,7.12
2023-03-29T05:07:51.420Z,7.12
2023-03-29T05:08:52.103Z,7.12
2023-03-29T05:09:52.819Z,7.11
2023-03-29T05:10:53.484Z,7.15
2023-03-29T05:11:54.175Z,7.12
2023-03-29T05:12:54.905Z,7.12
2023-03-29T05:13:55.566Z,7.09
2023-03-29T05:14:56.260Z,7.09
2023-03-29T05:15:56.988Z,7.07
2023-03-29T05:16:57.679Z,7.09
2023-03-29T05:17:58.401Z,7.07
2023-03-29T05:18:59.115Z,7.11
2023-03-29T05:19:59.813Z,7.08
2023-03-29T05:21:00.937Z,7.09
2023-03-29T05:22:01.274Z,7.08
2023-03-29T05:23:01.982Z,7.07
2023-03-29T05:24:02.663Z,7.11
2023-03-29T05:25:03.360Z,7.11
2023-03-29T05:26:04.017Z,7.09
2023-03-29T05:27:04.700Z,7.11
2023-03-29T05:28:05.397Z,7.11
2023-03-29T05:29:06.113Z,7.11
2023-03-29T05:30:06.773Z,7.12
2023-03-29T05:31:07.478Z,7.11
2023-03-29T05:32:08.194Z,7.12
2023-03-29T05:33:09.116Z,7.14
2023-03-29T05:34:09.815Z,7.14
2023-03-29T05:35:10.517Z,7.14
2023-03-29T05:36:11.276Z,7.14
2023-03-29T05:37:12.018Z,7.15
2023-03-29T05:38:12.715Z,7.15
2023-03-29T05:39:13.398Z,7.15
2023-03-29T05:40:14.074Z,7.16
2023-03-29T05:41:14.772Z,7.18
2023-03-29T05:42:15.448Z,7.19
2023-03-29T05:43:16.149Z,7.21
2023-03-29T05:44:16.841Z,7.19
2023-03-29T05:45:17.553Z,7.21
2023-03-29T05:46:18.259Z,7.19
2023-03-29T05:47:18.922Z,7.23
2023-03-29T05:48:19.627Z,7.19
2023-03-29T05:49:20.307Z,7.21
2023-03-29T05:50:20.985Z,7.21
2023-03-29T05:51:21.670Z,7.19
2023-03-29T05:52:22.349Z,7.19
2023-03-29T05:53:23.056Z,7.21
2023-03-29T05:54:23.737Z,7.21
2023-03-29T05:55:24.419Z,7.23
2023-03-29T05:56:25.107Z,7.23
2023-03-29T05:57:25.842Z,7.23
2023-03-29T05:58:26.693Z,7.24
2023-03-29T05:59:27.491Z,7.26
2023-03-29T06:00:28.246Z,7.29
2023-03-29T06:01:28.940Z,7.26
2023-03-29T06:02:29.655Z,7.26
2023-03-29T06:03:30.603Z,7.27
2023-03-29T06:04:31.431Z,7.26
2023-03-29T06:05:32.115Z,7.27
2023-03-29T06:06:32.807Z,7.27
2023-03-29T06:07:33.499Z,7.29
2023-03-29T06:08:34.219Z,7.29
2023-03-29T06:09:34.905Z,7.29
2023-03-29T06:10:35.566Z,7.30
2023-03-29T06:11:36.250Z,7.30
2023-03-29T06:12:36.937Z,7.32
2023-03-29T06:13:37.639Z,7.32
2023-03-29T06:14:38.313Z,7.32
2023-03-29T06:15:38.997Z,7.32
2023-03-29T06:16:42.148Z,7.32
2023-03-29T06:17:40.553Z,7.32
2023-03-29T06:18:41.256Z,7.32
2023-03-29T06:19:41.933Z,7.36
2023-03-29T06:20:42.660Z,7.34
2023-03-29T06:21:43.349Z,7.36
2023-03-29T06:22:44.094Z,7.34
2023-03-29T06:23:44.754Z,7.34
2023-03-29T06:24:45.584Z,7.33
2023-03-29T06:25:46.258Z,7.36
2023-03-29T06:26:46.939Z,7.37
2023-03-29T06:27:47.671Z,7.37
2023-03-29T06:28:49.973Z,7.37
2023-03-29T06:29:49.194Z,7.39
2023-03-29T06:30:49.901Z,7.41
2023-03-29T06:31:50.695Z,7.41
2023-03-29T06:32:51.437Z,7.39
2023-03-29T06:33:52.113Z,7.39
2023-03-29T06:34:52.800Z,7.41
2023-03-29T06:35:53.486Z,7.44
2023-03-29T06:36:54.168Z,7.44
2023-03-29T06:37:54.903Z,7.44
2023-03-29T06:38:55.563Z,7.47
2023-03-29T06:39:56.269Z,7.45
2023-03-29T06:40:56.938Z,7.48
2023-03-29T06:41:57.619Z,7.47
2023-03-29T06:42:58.311Z,7.50
2023-03-29T06:43:59.191Z,7.50
2023-03-29T06:44:59.875Z,7.51
2023-03-29T06:46:00.669Z,7.51
2023-03-29T06:47:01.384Z,7.50
2023-03-29T06:48:02.122Z,7.54
2023-03-29T06:49:02.833Z,7.52
2023-03-29T06:50:03.500Z,7.54
2023-03-29T06:51:04.366Z,7.54
2023-03-29T06:52:05.220Z,7.57
2023-03-29T06:53:05.939Z,7.58
2023-03-29T06:54:06.901Z,7.60
2023-03-29T06:55:07.649Z,7.60
2023-03-29T06:56:08.386Z,7.63
2023-03-29T06:57:09.158Z,7.63
2023-03-29T06:58:09.860Z,7.63
2023-03-29T06:59:10.540Z,7.69
2023-03-29T07:00:11.226Z,7.69
2023-03-29T07:01:11.966Z,7.70
2023-03-29T07:02:12.822Z,7.70
2023-03-29T07:03:13.677Z,7.73
2023-03-29T07:04:14.423Z,7.71
2023-03-29T07:05:15.094Z,7.74
2023-03-29T07:06:15.809Z,7.74
2023-03-29T07:07:16.486Z,7.76
2023-03-29T07:08:17.264Z,7.73
2023-03-29T07:09:19.504Z,7.79
2023-03-29T07:10:18.511Z,7.81
2023-03-29T07:11:19.191Z,7.81
2023-03-29T07:12:19.873Z,7.81
2023-03-29T07:13:20.572Z,7.81
2023-03-29T07:14:21.378Z,7.82
2023-03-29T07:15:22.031Z,7.84
2023-03-29T07:16:22.855Z,7.82
2023-03-29T07:17:23.591Z,7.85
2023-03-29T07:18:24.263Z,7.84
2023-03-29T07:19:24.948Z,7.85
2023-03-29T07:20:25.711Z,7.86
2023-03-29T07:21:26.361Z,7.88
2023-03-29T07:22:27.059Z,7.88
2023-03-29T07:23:27.849Z,7.89
2023-03-29T07:24:28.540Z,7.92
2023-03-29T07:25:29.213Z,7.91
2023-03-29T07:26:30.227Z,7.92
2023-03-29T07:27:30.457Z,7.95
2023-03-29T07:28:31.172Z,7.96
2023-03-29T07:29:31.853Z,8.00
2023-03-29T07:30:32.723Z,7.99
2023-03-29T07:31:33.438Z,8.02
2023-03-29T07:32:34.224Z,8.03
2023-03-29T07:33:35.053Z,8.04
2023-03-29T07:34:35.824Z,8.06
2023-03-29T07:35:36.554Z,8.10
2023-03-29T07:36:37.201Z,8.09
2023-03-29T07:37:37.899Z,8.12
2023-03-29T07:38:38.639Z,8.10
2023-03-29T07:39:39.318Z,8.12
2023-03-29T07:40:40.188Z,8.17
2023-03-29T07:41:40.946Z,8.14
2023-03-29T07:42:41.625Z,8.18
2023-03-29T07:43:42.347Z,8.21
2023-03-29T07:44:43.022Z,8.22
2023-03-29T07:45:43.720Z,8.24
2023-03-29T07:46:44.388Z,8.25
2023-03-29T07:47:45.125Z,8.27
2023-03-29T07:48:45.911Z,8.29
2023-03-29T07:49:46.564Z,8.34
2023-03-29T07:50:47.232Z,8.36
2023-03-29T07:51:47.918Z,8.37
2023-03-29T07:52:48.613Z,8.42
2023-03-29T07:53:49.294Z,8.42
2023-03-29T07:54:49.979Z,8.43
2023-03-29T07:55:50.678Z,8.47
2023-03-29T07:56:51.393Z,8.49
2023-03-29T07:57:52.173Z,8.54
2023-03-29T07:58:52.864Z,8.54
2023-03-29T07:59:53.555Z,8.57
2023-03-29T08:00:54.275Z,8.58
2023-03-29T08:01:54.989Z,8.63
2023-03-29T08:02:55.770Z,8.65
2023-03-29T08:03:56.520Z,8.65
2023-03-29T08:04:57.242Z,8.67
2023-03-29T08:05:58.001Z,8.70
2023-03-29T08:06:58.662Z,8.73
2023-03-29T08:07:59.372Z,8.76
2023-03-29T08:09:00.053Z,8.78
2023-03-29T08:10:00.790Z,8.79
2023-03-29T08:11:01.627Z,8.82
2023-03-29T08:12:02.451Z,8.85
2023-03-29T08:13:03.151Z,8.91
2023-03-29T08:14:03.846Z,8.93
2023-03-29T08:15:04.544Z,8.96
2023-03-29T08:16:05.242Z,8.97
2023-03-29T08:17:05.964Z,9.03
2023-03-29T08:18:06.734Z,9.04
2023-03-29T08:19:07.403Z,9.08
2023-03-29T08:20:08.081Z,9.13
2023-03-29T08:21:08.769Z,9.16
2023-03-29T08:22:09.451Z,9.19
2023-03-29T08:23:10.155Z,9.20
2023-03-29T08:24:10.818Z,9.23
2023-03-29T08:25:11.531Z,9.23
2023-03-29T08:26:12.210Z,9.27
2023-03-29T08:27:12.911Z,9.31
2023-03-29T08:28:13.590Z,9.34
2023-03-29T08:29:14.286Z,9.37
2023-03-29T08:30:15.016Z,9.40
2023-03-29T08:31:15.769Z,9.42
2023-03-29T08:32:16.499Z,9.48
2023-03-29T08:33:17.245Z,9.50
2023-03-29T08:34:17.918Z,9.53
2023-03-29T08:35:18.616Z,9.58
2023-03-29T08:36:19.344Z,9.60
2023-03-29T08:37:26.067Z,9.63
2023-03-29T08:38:20.960Z,9.67
2023-03-29T08:39:21.634Z,9.68
2023-03-29T08:40:22.345Z,9.71
2023-03-29T08:41:23.013Z,9.73
2023-03-29T08:42:23.717Z,9.73
2023-03-29T08:43:24.422Z,9.75
2023-03-29T08:44:25.113Z,9.80
2023-03-29T08:45:25.803Z,9.78
2023-03-29T08:46:34.247Z,9.81
2023-03-29T08:47:27.515Z,9.83
2023-03-29T08:48:28.204Z,9.88
2023-03-29T08:49:28.876Z,9.88
2023-03-29T08:50:29.566Z,9.88
2023-03-29T08:51:30.266Z,9.92
2023-03-29T08:52:30.943Z,9.93
2023-03-29T08:53:31.635Z,9.93
2023-03-29T08:54:32.342Z,9.93
2023-03-29T08:55:33.016Z,9.93
2023-03-29T08:56:34.345Z,9.92
2023-03-29T08:57:34.512Z,9.93
2023-03-29T08:58:35.197Z,9.93
2023-03-29T08:59:35.860Z,9.93
2023-03-29T09:00:36.588Z,9.95
2023-03-29T09:01:37.276Z,9.93
2023-03-29T09:02:38.033Z,9.93
2023-03-29T09:03:38.894Z,9.93
2023-03-29T09:04:39.624Z,9.92
2023-03-29T09:05:40.306Z,9.92
2023-03-29T09:06:40.998Z,9.92
2023-03-29T09:07:41.676Z,9.92
2023-03-29T09:08:42.468Z,9.95
2023-03-29T09:09:43.156Z,9.95
2023-03-29T09:10:43.835Z,9.93
2023-03-29T09:11:44.539Z,9.95
2023-03-29T09:12:45.355Z,9.95
2023-03-29T09:13:46.016Z,9.95
2023-03-29T09:14:46.705Z,9.98
2023-03-29T09:15:47.420Z,9.96
2023-03-29T09:16:48.129Z,9.96
2023-03-29T09:17:49.835Z,9.98
2023-03-29T09:18:49.449Z,10.01
2023-03-29T09:19:50.140Z,9.99
2023-03-29T09:20:50.826Z,10.01
2023-03-29T09:21:51.534Z,10.01
2023-03-29T09:22:52.481Z,10.06
2023-03-29T09:23:55.325Z,10.04
2023-03-29T09:24:54.137Z,10.09
2023-03-29T09:25:54.827Z,10.09
2023-03-29T09:26:55.557Z,10.10
2023-03-29T09:27:56.272Z,10.13
2023-03-29T09:28:57.004Z,10.14
2023-03-29T09:29:57.708Z,10.16
2023-03-29T09:30:58.423Z,10.18
2023-03-29T09:31:59.155Z,10.18
2023-03-29T09:32:59.924Z,10.22
2023-03-29T09:34:00.606Z,10.25
2023-03-29T09:35:01.334Z,10.24
2023-03-29T09:36:02.060Z,10.24
2023-03-29T09:37:02.730Z,10.28
2023-03-29T09:38:03.624Z,10.31
2023-03-29T09:39:04.386Z,10.32
2023-03-29T09:40:05.332Z,10.38
2023-03-29T09:41:06.192Z,10.38
2023-03-29T09:42:06.943Z,10.43
2023-03-29T09:43:07.660Z,10.44
2023-03-29T09:44:12.729Z,10.46
2023-03-29T09:45:09.404Z,10.47
2023-03-29T09:46:10.139Z,10.52
2023-03-29T09:47:10.838Z,10.54
2023-03-29T09:48:11.627Z,10.57
2023-03-29T09:49:12.315Z,10.63
2023-03-29T09:50:27.212Z,10.63
2023-03-29T09:51:14.018Z,10.65
2023-03-29T09:52:14.713Z,10.66
2023-03-29T09:53:15.462Z,10.66
2023-03-29T09:54:16.172Z,10.66
2023-03-29T09:55:16.869Z,10.68
2023-03-29T09:56:17.760Z,10.69
2023-03-29T09:57:18.502Z,10.70
2023-03-29T09:58:19.232Z,10.70
2023-03-29T09:59:19.927Z,10.70
2023-03-29T10:00:20.627Z,10.70
2023-03-29T10:01:21.402Z,10.72
2023-03-29T10:02:22.138Z,10.70
2023-03-29T10:03:22.896Z,10.72
2023-03-29T10:04:23.621Z,10.72
2023-03-29T10:05:24.324Z,10.70
2023-03-29T10:06:25.022Z,10.73
2023-03-29T10:07:25.764Z,10.76
2023-03-29T10:08:26.481Z,10.78
2023-03-29T10:09:27.187Z,10.76
2023-03-29T10:10:27.892Z,10.76
2023-03-29T10:11:28.597Z,10.76
2023-03-29T10:12:29.294Z,10.78
2023-03-29T10:13:30.041Z,10.78
2023-03-29T10:14:30.764Z,10.80
2023-03-29T10:15:31.458Z,10.81
2023-03-29T10:16:32.212Z,10.83
2023-03-29T10:17:32.982Z,10.84
2023-03-29T10:18:33.693Z,10.81
2023-03-29T10:19:34.435Z,10.83
2023-03-29T10:20:35.159Z,10.80
2023-03-29T10:21:35.864Z,10.80
2023-03-29T10:22:36.566Z,10.80
2023-03-29T10:23:37.293Z,10.78
2023-03-29T10:24:38.007Z,10.76
2023-03-29T10:25:41.082Z,10.78
2023-03-29T10:26:39.591Z,10.80
2023-03-29T10:27:40.293Z,10.78
2023-03-29T10:28:40.994Z,10.80
2023-03-29T10:29:41.692Z,10.81
2023-03-29T10:30:42.403Z,10.80
2023-03-29T10:31:43.208Z,10.84
2023-03-29T10:32:43.947Z,10.86
2023-03-29T10:33:44.643Z,10.86
2023-03-29T10:34:45.351Z,10.87
2023-03-29T10:35:46.094Z,10.88
2023-03-29T10:36:46.789Z,10.93
2023-03-29T10:37:47.499Z,10.93
2023-03-29T10:38:48.206Z,10.93
2023-03-29T10:39:48.921Z,10.95
2023-03-29T10:40:49.613Z,10.95
2023-03-29T10:41:50.336Z,10.99
2023-03-29T10:42:51.068Z,11.03
2023-03-29T10:43:51.779Z,11.08
2023-03-29T10:44:52.494Z,11.09
2023-03-29T10:45:53.236Z,11.16
2023-03-29T10:46:53.905Z,11.19
2023-03-29T10:47:54.651Z,11.23
2023-03-29T10:48:55.350Z,11.24
2023-03-29T10:49:57.139Z,11.31
2023-03-29T10:50:56.921Z,11.31
2023-03-29T10:51:57.648Z,11.35
2023-03-29T10:52:58.354Z,11.39
2023-03-29T10:53:59.093Z,11.42
2023-03-29T10:54:59.802Z,11.45
2023-03-29T10:56:00.497Z,11.46
2023-03-29T10:57:01.243Z,11.51
2023-03-29T10:58:01.921Z,11.51
2023-03-29T10:59:02.647Z,11.54
2023-03-29T11:00:03.362Z,11.59
2023-03-29T11:01:04.419Z,11.63
2023-03-29T11:02:04.866Z,11.67
2023-03-29T11:03:05.720Z,11.70
2023-03-29T11:04:06.764Z,11.70
2023-03-29T11:05:07.138Z,11.78
2023-03-29T11:06:07.876Z,11.81
2023-03-29T11:07:08.560Z,11.82
2023-03-29T11:08:09.271Z,11.90
2023-03-29T11:09:09.996Z,11.94
2023-03-29T11:10:10.703Z,11.97
2023-03-29T11:11:11.407Z,12.01
2023-03-29T11:12:16.161Z,12.03
2023-03-29T11:13:13.098Z,12.01
2023-03-29T11:14:13.838Z,12.04
2023-03-29T11:15:14.507Z,12.04
2023-03-29T11:16:15.266Z,12.07
2023-03-29T11:17:15.937Z,12.12
2023-03-29T11:18:16.660Z,12.12
2023-03-29T11:19:17.366Z,12.13
2023-03-29T11:20:18.079Z,12.16
2023-03-29T11:21:18.786Z,12.19
2023-03-29T11:22:19.482Z,12.21
2023-03-29T11:23:20.187Z,12.22
2023-03-29T11:24:20.926Z,12.25
2023-03-29T11:25:21.655Z,12.26
2023-03-29T11:26:22.356Z,12.29
2023-03-29T11:27:23.076Z,12.26
2023-03-29T11:28:23.757Z,12.30
2023-03-29T11:29:24.479Z,12.30
2023-03-29T11:30:25.182Z,12.31
2023-03-29T11:31:26.000Z,12.26
2023-03-29T11:32:26.708Z,12.25
2023-03-29T11:33:27.421Z,12.31
2023-03-29T11:34:28.148Z,12.26
2023-03-29T11:35:28.852Z,12.33
2023-03-29T11:36:29.559Z,12.31
2023-03-29T11:37:30.260Z,12.31
2023-03-29T11:38:30.961Z,12.33
2023-03-29T11:39:31.679Z,12.33
2023-03-29T11:40:32.450Z,12.34
2023-03-29T11:41:33.229Z,12.37
2023-03-29T11:42:33.934Z,12.40
2023-03-29T11:43:34.639Z,12.40
2023-03-29T11:44:35.400Z,12.48
2023-03-29T11:45:36.077Z,12.55
2023-03-29T11:46:36.907Z,12.56
2023-03-29T11:47:37.598Z,12.58
2023-03-29T11:48:38.298Z,12.63
2023-03-29T11:49:38.991Z,12.67
2023-03-29T11:50:39.711Z,12.66
2023-03-29T11:51:40.417Z,12.63
2023-03-29T11:52:41.118Z,12.61
2023-03-29T11:53:41.834Z,12.63
2023-03-29T11:54:42.541Z,12.63
2023-03-29T11:55:43.264Z,12.63
2023-03-29T11:56:43.995Z,12.69
2023-03-29T11:57:44.720Z,12.70
2023-03-29T11:58:45.431Z,12.69
2023-03-29T11:59:46.133Z,12.73
2023-03-29T12:00:46.851Z,12.80
2023-03-29T12:01:47.597Z,12.81
2023-03-29T12:02:48.634Z,12.85
2023-03-29T12:03:48.942Z,12.94
2023-03-29T12:04:49.651Z,13.06
2023-03-29T12:05:50.350Z,13.13
2023-03-29T12:06:51.125Z,13.21
2023-03-29T12:07:51.882Z,13.22
2023-03-29T12:08:52.563Z,13.28
2023-03-29T12:09:53.412Z,13.36
2023-03-29T12:10:54.178Z,13.46
2023-03-29T12:11:54.910Z,13.48
2023-03-29T12:12:55.600Z,13.50
2023-03-29T12:13:56.340Z,13.61
2023-03-29T12:14:57.026Z,13.59
2023-03-29T12:15:57.724Z,13.65
2023-03-29T12:16:58.501Z,13.65
2023-03-29T12:17:59.254Z,13.68
2023-03-29T12:18:59.972Z,13.66
2023-03-29T12:20:00.668Z,13.68
2023-03-29T12:21:01.393Z,13.69
2023-03-29T12:22:02.095Z,13.63
2023-03-29T12:23:02.804Z,13.65
2023-03-29T12:24:03.520Z,13.63
2023-03-29T12:25:04.248Z,13.65
2023-03-29T12:26:04.930Z,13.65
2023-03-29T12:27:05.634Z,13.62
2023-03-29T12:28:06.351Z,13.57
2023-03-29T12:29:07.086Z,13.61
2023-03-29T12:30:07.796Z,13.61
2023-03-29T12:31:08.485Z,13.61
2023-03-29T12:32:09.276Z,13.61
2023-03-29T12:33:10.095Z,13.65
2023-03-29T12:34:10.815Z,13.69
2023-03-29T12:35:11.512Z,13.68
2023-03-29T12:36:12.243Z,13.73
2023-03-29T12:37:12.934Z,13.73
2023-03-29T12:38:13.675Z,13.73
2023-03-29T12:39:14.391Z,13.75
2023-03-29T12:40:15.107Z,13.75
2023-03-29T12:41:15.796Z,13.81
2023-03-29T12:42:16.515Z,13.84
2023-03-29T12:43:17.208Z,13.88
2023-03-29T12:44:18.006Z,13.91
2023-03-29T12:45:18.732Z,13.88
2023-03-29T12:46:19.471Z,13.93
2023-03-29T12:47:20.211Z,13.98
2023-03-29T12:48:20.908Z,13.94
2023-03-29T12:49:21.631Z,13.99
2023-03-29T12:50:22.341Z,14.06
2023-03-29T12:51:23.048Z,14.11
2023-03-29T12:52:23.744Z,14.12
2023-03-29T12:53:24.453Z,14.12
2023-03-29T12:54:27.915Z,14.11
2023-03-29T12:55:26.014Z,14.08
2023-03-29T12:56:26.786Z,14.06
2023-03-29T12:57:27.605Z,14.04
2023-03-29T12:58:28.354Z,14.06
2023-03-29T12:59:29.061Z,14.08
2023-03-29T13:00:29.756Z,14.06
2023-03-29T13:01:30.571Z,14.09
2023-03-29T13:02:31.368Z,14.11
2023-03-29T13:03:32.075Z,14.11
2023-03-29T13:04:32.795Z,14.09
2023-03-29T13:05:33.533Z,14.09
2023-03-29T13:06:34.236Z,14.09
2023-03-29T13:07:34.920Z,14.06
2023-03-29T13:08:35.782Z,14.12
2023-03-29T13:09:36.535Z,14.09
2023-03-29T13:10:37.238Z,14.13
2023-03-29T13:11:37.941Z,14.13
2023-03-29T13:12:38.642Z,14.16
2023-03-29T13:13:39.370Z,14.23
2023-03-29T13:14:40.087Z,14.24
2023-03-29T13:15:40.822Z,14.36
2023-03-29T13:16:41.523Z,14.38
2023-03-29T13:17:43.323Z,14.42
2023-03-29T13:18:42.745Z,14.49
2023-03-29T13:19:43.441Z,14.56
2023-03-29T13:20:44.143Z,14.69